Time;durP1;ratioP1;P1;durP2;ratioP2;P2;SDS_P1;SDS_P2;PMS_P1;PMS_P2;Temp;Humidity;BMP_temperature;BMP_pressure;BME280_temperature;BME280_humidity;BME280_pressure;Samples;Min_cycle;Max_cycle;Signal;HPM_P1;HPM_P2
2024/03/09 00:00:27;;;;;;;13.05;8.43;;;;;;;7.63;32.61;100109.53;5072303;28;20045;-82
2024/03/09 00:03:17;;;;;;;12.05;8.35;;;;;;;7.65;33.28;100112.97;5098711;28;20495;-83
2024/03/09 00:05:45;;;;;;;12.00;8.48;;;;;;;7.60;33.03;100116.09;5074099;28;20072;-82
2024/03/09 00:08:17;;;;;;;12.05;8.52;;;;;;;7.64;32.97;100116.69;5075213;28;20586;-84
2024/03/09 00:10:49;;;;;;;11.75;8.35;;;;;;;7.60;33.19;100109.81;5090281;28;20440;-82
2024/03/09 00:13:18;;;;;;;13.07;8.43;;;;;;;7.65;33.06;100116.56;5067788;28;20047;-82
2024/03/09 00:15:46;;;;;;;14.27;8.93;;;;;;;7.67;33.01;100119.16;5092447;28;20059;-83
2024/03/09 00:18:14;;;;;;;11.77;7.57;;;;;;;7.67;33.35;100113.72;5068087;28;20053;-83
2024/03/09 00:20:53;;;;;;;12.98;8.80;;;;;;;7.69;33.25;100117.16;5090435;28;20071;-82
2024/03/09 00:23:22;;;;;;;11.98;8.55;;;;;;;7.68;33.27;100118.19;5071082;28;20064;-83
2024/03/09 00:25:50;;;;;;;13.55;8.70;;;;;;;7.67;33.16;100120.03;5079847;28;20048;-85
2024/03/09 00:28:20;;;;;;;13.77;8.60;;;;;;;7.65;33.31;100111.13;5080960;28;20614;-85
2024/03/09 00:30:49;;;;;;;13.23;8.07;;;;;;;7.65;33.00;100112.97;5098791;28;20127;-83
2024/03/09 00:33:16;;;;;;;11.27;7.68;;;;;;;7.65;33.25;100107.53;5079238;28;20140;-83
2024/03/09 00:35:44;;;;;;;13.45;8.48;;;;;;;7.63;33.42;100112.25;5083031;28;20054;-82
2024/03/09 00:38:12;;;;;;;13.00;8.52;;;;;;;7.63;33.08;100112.25;5080454;28;20068;-85
2024/03/09 00:40:40;;;;;;;13.18;8.27;;;;;;;7.60;33.02;100102.47;5080374;28;20119;-83
2024/03/09 00:43:09;;;;;;;15.35;9.23;;;;;;;7.60;33.22;100099.75;5096350;28;20069;-83
2024/03/09 00:45:39;;;;;;;13.05;8.10;;;;;;;7.60;33.22;100093.47;5071553;28;20036;-84
2024/03/09 00:48:07;;;;;;;11.70;7.70;;;;;;;7.56;33.22;100085.56;5083299;28;20505;-82
2024/03/09 00:50:35;;;;;;;12.27;8.02;;;;;;;7.54;33.12;100090.25;5097732;28;20415;-83
2024/03/09 00:53:03;;;;;;;11.93;7.82;;;;;;;7.54;33.04;100086.69;5092295;28;20033;-83
2024/03/09 00:55:32;;;;;;;10.30;7.32;;;;;;;7.51;33.33;100081.53;5074382;28;20052;-84
2024/03/09 00:58:01;;;;;;;10.90;7.47;;;;;;;7.52;33.20;100081.34;5087085;28;20048;-83
2024/03/09 01:00:29;;;;;;;11.43;8.18;;;;;;;7.52;33.46;100080.50;5090411;28;20396;-82
2024/03/09 01:02:59;;;;;;;11.25;7.93;;;;;;;7.52;33.33;100077.78;5088757;28;20040;-81
2024/03/09 01:05:27;;;;;;;12.63;7.70;;;;;;;7.49;33.06;100069.91;5096068;28;20419;-82
2024/03/09 01:07:56;;;;;;;12.93;8.40;;;;;;;7.46;33.47;100062.84;5072188;28;20072;-81
2024/03/09 01:10:25;;;;;;;13.25;8.57;;;;;;;7.46;33.01;100070.16;5097141;28;20111;-82
2024/03/09 01:12:53;;;;;;;13.93;7.88;;;;;;;7.43;33.18;100068.59;5079040;28;20060;-84
2024/03/09 01:15:21;;;;;;;12.10;7.47;;;;;;;7.41;33.15;100070.56;5095865;28;20044;-83
2024/03/09 01:17:49;;;;;;;12.13;8.23;;;;;;;7.37;33.53;100069.09;5079049;28;20073;-81
2024/03/09 01:20:18;;;;;;;11.82;7.82;;;;;;;7.40;33.66;100065.25;5095990;28;20507;-81
2024/03/09 01:22:47;;;;;;;12.68;7.80;;;;;;;7.37;33.43;100057.34;5092008;28;20043;-83
2024/03/09 01:25:15;;;;;;;10.65;7.45;;;;;;;7.36;33.17;100064.63;5068338;28;20055;-82
2024/03/09 01:27:44;;;;;;;11.90;7.90;;;;;;;7.33;33.65;100051.31;5090280;28;20458;-82
2024/03/09 01:30:12;;;;;;;10.55;7.60;;;;;;;7.32;33.44;100055.03;5072957;28;20050;-81
2024/03/09 01:32:43;;;;;;;12.73;7.90;;;;;;;7.33;33.69;100051.31;5073247;28;20120;-81
2024/03/09 01:35:12;;;;;;;11.57;7.82;;;;;;;7.32;33.56;100049.59;5091414;28;20055;-82
2024/03/09 01:37:42;;;;;;;12.07;8.20;;;;;;;7.30;33.70;100043.41;5076949;28;20055;-83
2024/03/09 01:40:11;;;;;;;13.20;8.10;;;;;;;7.29;33.39;100038.94;5093708;28;20123;-81
2024/03/09 01:42:39;;;;;;;11.88;7.88;;;;;;;7.27;33.45;100034.66;5072448;28;20067;-81
2024/03/09 01:45:08;;;;;;;13.15;7.47;;;;;;;7.29;33.61;100041.66;5090771;28;20064;-82
2024/03/09 01:47:37;;;;;;;13.00;8.30;;;;;;;7.29;33.86;100032.66;5077993;28;20047;-81
2024/03/09 01:50:11;;;;;;;11.73;7.55;;;;;;;7.28;33.76;100037.22;5072529;28;20052;-81
2024/03/09 01:52:47;;;;;;;11.43;7.68;;;;;;;7.27;33.84;100040.94;5075029;28;20054;-83
2024/03/09 01:55:18;;;;;;;13.50;7.65;;;;;;;7.26;33.61;100039.25;5086502;28;20048;-81
2024/03/09 01:57:51;;;;;;;11.95;8.15;;;;;;;7.26;33.60;100044.69;5081370;28;20040;-82
2024/03/09 02:00:20;;;;;;;12.35;7.80;;;;;;;7.24;33.96;100041.22;5095163;28;20070;-83
2024/03/09 02:02:52;;;;;;;12.35;7.53;;;;;;;7.27;34.00;100035.50;5077423;28;20523;-82
2024/03/09 02:05:20;;;;;;;12.07;7.47;;;;;;;7.25;33.75;100033.91;5094754;28;20040;-82
2024/03/09 02:07:50;;;;;;;11.18;7.28;;;;;;;7.29;33.94;100032.66;5089490;28;20035;-84
2024/03/09 02:10:19;;;;;;;13.65;8.23;;;;;;;7.26;34.13;100031.06;5076616;28;20472;-83
2024/03/09 02:12:47;;;;;;;11.57;7.20;;;;;;;7.26;33.80;100022.91;5072254;28;20052;-84
2024/03/09 02:15:16;;;;;;;12.55;7.90;;;;;;;7.27;34.00;100018.34;5093358;28;20052;-83
2024/03/09 02:17:47;;;;;;;10.95;7.20;;;;;;;7.26;33.72;100011.16;5098489;28;20039;-82
2024/03/09 02:20:17;;;;;;;12.05;7.43;;;;;;;7.26;33.80;100006.56;5094183;28;20040;-84
2024/03/09 02:22:46;;;;;;;11.70;7.85;;;;;;;7.24;33.80;100002.25;5094455;28;20122;-82
2024/03/09 02:25:18;;;;;;;10.15;6.93;;;;;;;7.29;34.14;100010.88;5071334;28;20388;-84
2024/03/09 02:27:46;;;;;;;11.07;7.38;;;;;;;7.27;33.80;100011.00;5084078;28;20047;-82
2024/03/09 02:30:14;;;;;;;11.95;7.10;;;;;;;7.26;34.32;100003.84;5068018;28;20430;-81
2024/03/09 02:32:43;;;;;;;12.57;7.57;;;;;;;7.26;34.14;100006.56;5068352;28;20040;-84
2024/03/09 02:35:11;;;;;;;10.57;7.28;;;;;;;7.28;34.07;100000.97;5076649;28;20066;-82
2024/03/09 02:37:40;;;;;;;11.68;7.80;;;;;;;7.29;33.91;100003.56;5069667;28;20196;-82
2024/03/09 02:40:12;;;;;;;10.82;8.15;;;;;;;7.27;34.15;99997.38;5092780;28;20469;-81
2024/03/09 02:43:05;;;;;;;12.35;8.55;;;;;;;7.26;34.18;99998.41;5065513;28;20142;-83
2024/03/09 02:45:33;;;;;;;12.25;7.78;;;;;;;7.22;34.21;99990.63;5071976;28;20036;-82
2024/03/09 02:48:01;;;;;;;12.18;7.78;;;;;;;7.25;33.89;99999.41;5099659;28;20036;-81
2024/03/09 02:50:31;;;;;;;11.15;7.53;;;;;;;7.26;34.14;99994.81;5096561;28;20036;-85
2024/03/09 02:53:00;;;;;;;12.57;8.07;;;;;;;7.25;33.96;99990.38;5086331;28;20056;-81
2024/03/09 02:55:28;;;;;;;12.20;7.80;;;;;;;7.24;33.85;99989.50;5086691;28;20047;-84
2024/03/09 02:57:57;;;;;;;11.68;7.75;;;;;;;7.24;34.03;99989.50;5088926;28;20504;-82
2024/03/09 03:00:27;;;;;;;11.68;8.07;;;;;;;7.24;34.12;99985.94;5067266;28;20044;-82
2024/03/09 03:05:43;;;;;;;12.57;7.38;;;;;;;7.23;34.10;99984.19;5071880;28;20068;-82
2024/03/09 03:08:13;;;;;;;13.15;7.82;;;;;;;7.20;34.19;99985.31;5068047;28;20068;-82
2024/03/09 03:10:41;;;;;;;10.23;7.28;;;;;;;7.18;34.20;99977.31;5065718;28;21223;-83
2024/03/09 03:13:11;;;;;;;13.65;8.02;;;;;;;7.20;34.19;99974.44;5078624;28;20033;-82
2024/03/09 03:15:39;;;;;;;12.40;7.85;;;;;;;7.20;34.27;99971.72;5089425;28;20079;-82
2024/03/09 03:18:08;;;;;;;12.13;7.50;;;;;;;7.19;33.99;99975.44;5075323;28;20079;-82
2024/03/09 03:20:36;;;;;;;13.90;8.00;;;;;;;7.19;34.24;99975.44;5096562;28;20123;-82
2024/03/09 03:23:05;;;;;;;11.73;8.07;;;;;;;7.20;34.21;99983.47;5080889;28;20098;-82
2024/03/09 03:25:34;;;;;;;12.02;7.90;;;;;;;7.20;34.26;99974.44;5067959;28;20036;-83
2024/03/09 03:28:03;;;;;;;10.55;7.72;;;;;;;7.22;34.25;99975.16;5068661;28;20036;-83
2024/03/09 03:30:33;;;;;;;12.35;7.88;;;;;;;7.24;34.33;99975.03;5071652;28;20070;-84
2024/03/09 03:33:01;;;;;;;11.18;7.43;;;;;;;7.22;34.24;99967.00;5091247;28;20131;-83
2024/03/09 03:35:31;;;;;;;11.57;7.68;;;;;;;7.22;34.34;99963.41;5072985;28;20044;-84
2024/03/09 03:38:01;;;;;;;13.63;8.43;;;;;;;7.23;34.12;99970.59;5081993;28;20089;-82
2024/03/09 03:40:30;;;;;;;12.45;8.07;;;;;;;7.22;34.42;99971.59;5088693;28;20127;-82
2024/03/09 03:42:58;;;;;;;12.73;7.85;;;;;;;7.22;34.20;99975.16;5066805;28;20040;-82
2024/03/09 03:45:26;;;;;;;13.98;7.95;;;;;;;7.22;34.09;99972.44;5084944;28;20495;-83
2024/03/09 03:47:56;;;;;;;11.85;7.72;;;;;;;7.20;34.21;99963.53;5070495;28;20062;-83
2024/03/09 03:50:24;;;;;;;13.65;8.57;;;;;;;7.18;34.25;99973.72;5076123;28;20454;-85
2024/03/09 03:52:53;;;;;;;12.05;8.40;;;;;;;7.19;34.47;99976.28;5095552;28;20044;-85
2024/03/09 03:55:21;;;;;;;13.27;8.60;;;;;;;7.17;34.47;99970.16;5075983;28;20105;-83
2024/03/09 03:57:50;;;;;;;13.55;8.63;;;;;;;7.16;34.11;99962.09;5093750;28;20080;-83
2024/03/09 04:00:21;;;;;;;10.85;7.57;;;;;;;7.16;34.23;99968.41;5073877;28;20040;-81
2024/03/09 04:02:49;;;;;;;12.02;7.70;;;;;;;7.16;34.35;99962.97;5069511;28;20119;-82
2024/03/09 04:05:33;;;;;;;11.88;8.02;;;;;;;7.18;34.40;99957.41;5068858;28;20040;-84
2024/03/09 04:08:01;;;;;;;12.95;8.07;;;;;;;7.12;34.45;99957.91;5086606;28;20086;-82
2024/03/09 04:10:30;;;;;;;12.70;8.48;;;;;;;7.15;34.07;99957.66;5088528;28;20040;-83
2024/03/09 04:12:58;;;;;;;12.25;8.05;;;;;;;7.13;34.34;99954.19;5098928;28;20047;-83
2024/03/09 04:15:27;;;;;;;12.50;8.38;;;;;;;7.12;34.46;99958.78;5074048;28;20108;-81
2024/03/09 04:17:55;;;;;;;13.68;7.78;;;;;;;7.11;34.49;99953.47;5083130;28;20048;-82
2024/03/09 04:20:41;;;;;;;12.65;8.18;;;;;;;7.13;34.37;99957.78;5090159;28;20428;-83
2024/03/09 04:23:17;;;;;;;10.65;6.95;;;;;;;7.09;34.16;99955.47;5077639;28;20036;-82
2024/03/09 04:25:46;;;;;;;12.82;8.05;;;;;;;7.10;34.44;99960.78;5068799;28;20036;-82
2024/03/09 04:28:20;;;;;;;11.73;8.32;;;;;;;7.10;34.54;99954.50;5087751;28;20122;-83
2024/03/09 04:30:49;;;;;;;14.23;8.38;;;;;;;7.09;34.61;99950.91;5074595;28;20066;-83
2024/03/09 04:33:18;;;;;;;13.23;8.43;;;;;;;7.11;34.32;99958.91;5067650;28;20678;-84
2024/03/09 04:35:48;;;;;;;12.02;8.02;;;;;;;7.10;34.59;99954.50;5096925;28;20040;-82
2024/03/09 04:38:18;;;;;;;12.82;7.95;;;;;;;7.08;34.57;99949.19;5091238;28;20049;-84
2024/03/09 04:40:46;;;;;;;10.52;7.57;;;;;;;7.09;34.60;99950.91;5074706;28;20217;-84
2024/03/09 04:43:14;;;;;;;13.10;8.23;;;;;;;7.05;34.63;99944.00;5072038;28;20053;-83
2024/03/09 04:45:43;;;;;;;14.38;8.57;;;;;;;7.07;34.66;99939.28;5061854;28;20045;-83
2024/03/09 04:48:13;;;;;;;13.05;8.38;;;;;;;7.07;34.87;99946.59;5070901;28;20033;-82
2024/03/09 04:50:46;;;;;;;11.98;8.25;;;;;;;7.07;34.59;99933.84;5075081;28;20076;-82
2024/03/09 04:53:15;;;;;;;13.65;8.63;;;;;;;7.05;34.86;99937.69;5068793;28;20124;-84
2024/03/09 04:55:48;;;;;;;11.90;8.20;;;;;;;7.05;34.54;99932.25;5075187;28;20041;-83
2024/03/09 04:58:19;;;;;;;12.90;8.13;;;;;;;7.05;34.75;99934.97;5069456;28;20077;-81
2024/03/09 05:00:47;;;;;;;12.18;8.30;;;;;;;7.03;34.64;99929.66;5073286;28;20041;-84
2024/03/09 05:03:16;;;;;;;12.75;7.85;;;;;;;7.00;34.75;99934.53;5072823;28;20028;-82
2024/03/09 05:05:44;;;;;;;13.90;8.95;;;;;;;7.02;34.49;99938.84;5069316;28;20123;-82
2024/03/09 05:08:12;;;;;;;12.43;8.07;;;;;;;6.99;34.55;99930.94;5069300;28;20069;-83
2024/03/09 05:10:41;;;;;;;15.20;8.70;;;;;;;6.98;34.88;99929.22;5071640;28;20076;-82
2024/03/09 05:13:11;;;;;;;12.15;8.43;;;;;;;6.99;34.78;99917.34;5068160;28;20068;-81
2024/03/09 05:15:39;;;;;;;14.15;8.38;;;;;;;6.96;34.79;99916.72;5071839;28;20041;-85
2024/03/09 05:18:07;;;;;;;13.32;8.05;;;;;;;6.95;34.72;99904.13;5074784;28;20040;-83
2024/03/09 05:20:37;;;;;;;12.93;8.80;;;;;;;6.90;34.51;99907.25;5069839;28;20044;-84
2024/03/09 05:23:07;;;;;;;13.65;9.10;;;;;;;6.91;34.63;99913.56;5071034;28;20084;-81
2024/03/09 05:25:43;;;;;;;15.13;8.52;;;;;;;6.90;34.91;99907.25;5067976;28;20047;-83
2024/03/09 05:28:14;;;;;;;14.60;8.75;;;;;;;6.91;34.91;99911.69;5070931;28;20403;-82
2024/03/09 05:30:43;;;;;;;14.75;8.75;;;;;;;6.90;35.04;99906.38;5092227;28;20481;-81
2024/03/09 05:33:13;;;;;;;14.05;8.95;;;;;;;6.89;34.91;99899.22;5088862;28;20059;-83
2024/03/09 05:35:42;;;;;;;13.68;8.20;;;;;;;6.88;35.12;99895.63;5078398;28;20417;-83
2024/03/09 05:38:10;;;;;;;14.73;8.80;;;;;;;6.89;34.80;99894.66;5091856;28;20524;-81
2024/03/09 05:40:39;;;;;;;14.65;8.95;;;;;;;6.87;34.84;99895.78;5076169;28;20115;-83
2024/03/09 05:43:08;;;;;;;11.98;8.20;;;;;;;6.86;35.04;99902.22;5088840;28;20039;-84
2024/03/09 05:45:38;;;;;;;13.90;8.45;;;;;;;6.86;35.21;99894.91;5067864;28;20053;-83
2024/03/09 05:48:08;;;;;;;12.55;8.55;;;;;;;6.86;35.07;99900.34;5068403;28;20044;-83
2024/03/09 05:50:37;;;;;;;12.75;8.57;;;;;;;6.86;35.46;99894.91;5069919;28;20048;-83
2024/03/09 05:53:08;;;;;;;12.32;8.23;;;;;;;6.86;34.91;99889.47;5074294;28;20040;-84
2024/03/09 05:55:39;;;;;;;13.57;8.52;;;;;;;6.86;35.13;99888.63;5088836;28;20036;-84
2024/03/09 05:58:07;;;;;;;11.90;8.05;;;;;;;6.87;35.24;99903.94;5073245;28;20428;-84
2024/03/09 06:00:36;;;;;;;13.73;8.50;;;;;;;6.88;35.32;99902.94;5070166;28;20071;-82
2024/03/09 06:03:06;;;;;;;13.43;9.30;;;;;;;6.86;35.13;99908.50;5071446;28;20129;-83
2024/03/09 06:05:36;;;;;;;14.05;9.40;;;;;;;6.87;35.21;99907.50;5072237;28;20056;-84
2024/03/09 06:08:04;;;;;;;13.57;8.55;;;;;;;6.89;35.33;99901.94;5071744;28;20075;-84
2024/03/09 06:10:31;;;;;;;13.65;9.32;;;;;;;6.84;35.33;99891.47;5078212;28;20358;-84
2024/03/09 06:13:07;;;;;;;15.20;8.95;;;;;;;6.86;35.17;99894.06;5070980;28;20067;-84
2024/03/09 06:15:35;;;;;;;15.50;9.50;;;;;;;6.86;35.25;99894.06;5079039;28;20153;-84
2024/03/09 06:18:05;;;;;;;13.60;8.73;;;;;;;6.84;35.29;99887.91;5072664;28;20049;-85
2024/03/09 06:20:34;;;;;;;12.50;8.30;;;;;;;6.80;35.20;99885.44;5076622;28;20049;-83
2024/03/09 06:23:03;;;;;;;14.13;8.40;;;;;;;6.82;34.99;99883.44;5082556;28;20040;-84
2024/03/09 06:25:32;;;;;;;16.02;9.75;;;;;;;6.83;35.26;99889.75;5079984;28;20075;-83
2024/03/09 06:28:04;;;;;;;13.63;8.93;;;;;;;6.84;35.19;99896.06;5071654;28;20551;-83
2024/03/09 06:30:32;;;;;;;14.07;9.00;;;;;;;6.80;35.63;99895.44;5072501;28;20393;-85
2024/03/09 06:33:01;;;;;;;13.38;9.07;;;;;;;6.81;35.33;99902.63;5086305;28;20066;-85
2024/03/09 06:35:32;;;;;;;13.75;9.00;;;;;;;6.84;35.42;99906.94;5091431;28;20048;-83
2024/03/09 06:38:04;;;;;;;14.05;8.45;;;;;;;6.82;35.48;99913.38;5095253;28;20047;-85
2024/03/09 06:40:36;;;;;;;15.13;8.50;;;;;;;6.81;35.78;99913.50;5081322;28;20526;-85
2024/03/09 06:43:06;;;;;;;14.48;8.82;;;;;;;6.82;35.61;99896.19;5085782;28;20040;-83
2024/03/09 06:45:35;;;;;;;14.15;8.23;;;;;;;6.86;35.69;99910.38;5098825;28;20047;-83
2024/03/09 06:48:03;;;;;;;13.23;8.55;;;;;;;6.82;35.83;99913.38;5083904;28;20511;-85
2024/03/09 06:50:35;;;;;;;13.60;8.52;;;;;;;6.85;35.73;99916.81;5098264;28;20036;-83
2024/03/09 06:53:03;;;;;;;12.95;8.93;;;;;;;6.88;35.66;99917.41;5096995;28;20062;-85
2024/03/09 06:55:31;;;;;;;14.15;8.48;;;;;;;6.87;35.90;99918.38;5092249;28;20102;-83
2024/03/09 06:58:01;;;;;;;12.60;8.02;;;;;;;6.89;35.90;99924.56;5067924;28;20079;-83
2024/03/09 07:00:34;;;;;;;13.75;8.75;;;;;;;6.92;35.67;99921.59;5078022;28;20044;-84
2024/03/09 07:03:04;;;;;;;14.55;8.90;;;;;;;6.94;35.90;99922.28;5079589;28;20036;-85
2024/03/09 07:05:35;;;;;;;13.57;9.32;;;;;;;6.96;35.77;99920.31;5079270;28;20264;-82
2024/03/09 07:08:05;;;;;;;13.55;9.00;;;;;;;6.99;36.10;99927.34;5107744;28;20036;-83
2024/03/09 07:10:36;;;;;;;17.38;9.65;;;;;;;7.00;35.46;99927.22;5073250;28;20110;-85
2024/03/09 07:13:05;;;;;;;12.48;8.45;;;;;;;7.04;35.78;99927.78;5079171;28;20037;-82
2024/03/09 07:15:34;;;;;;;14.43;9.00;;;;;;;7.07;35.85;99924.81;5081597;28;20131;-82
2024/03/09 07:18:03;;;;;;;14.82;9.07;;;;;;;7.09;36.07;99925.56;5073142;28;20044;-83
2024/03/09 07:20:33;;;;;;;14.75;8.60;;;;;;;7.10;36.10;99919.97;5075136;28;20040;-84
2024/03/09 07:23:05;;;;;;;13.70;9.10;;;;;;;7.16;36.20;99924.00;5077299;28;20113;-83
2024/03/09 07:25:34;;;;;;;12.95;8.45;;;;;;;7.19;36.77;99934.59;5093160;28;20036;-83
2024/03/09 07:28:02;;;;;;;13.40;8.93;;;;;;;7.34;37.05;99932.41;5070089;28;20036;-84
2024/03/09 07:30:32;;;;;;;13.80;8.85;;;;;;;7.47;36.98;99935.75;5073832;28;20044;-85
2024/03/09 09:02:06;;;;;;;12.43;8.50;;;;;;;9.17;34.44;99878.00;5062935;28;20440;-84
2024/03/09 09:04:40;;;;;;;15.35;8.77;;;;;;;9.21;34.25;99872.09;5065530;28;20068;-82
2024/03/09 09:07:15;;;;;;;13.75;8.65;;;;;;;9.22;34.18;99871.09;5073714;28;20036;-84
2024/03/09 09:09:57;;;;;;;12.55;8.10;;;;;;;9.34;33.65;99875.34;5072184;28;20048;-83
2024/03/09 09:12:28;;;;;;;12.57;8.85;;;;;;;9.36;34.15;99861.53;5078835;28;20043;-83
2024/03/09 09:14:57;;;;;;;13.43;8.65;;;;;;;9.41;33.99;99851.91;5071129;28;20052;-84
2024/03/09 09:17:27;;;;;;;11.82;8.38;;;;;;;9.46;34.18;99851.47;5105483;28;20062;-84
2024/03/09 09:19:55;;;;;;;12.75;9.10;;;;;;;9.48;33.76;99838.53;5086784;28;20051;-84
2024/03/09 09:22:29;;;;;;;12.75;8.48;;;;;;;9.57;33.57;99844.97;5075881;28;20045;-84
2024/03/09 09:24:59;;;;;;;15.05;9.88;;;;;;;9.56;33.76;99841.38;5091860;28;20108;-84
2024/03/09 09:27:29;;;;;;;13.25;8.98;;;;;;;9.63;33.97;99845.19;5079342;28;20031;-84
2024/03/09 09:29:59;;;;;;;13.55;9.75;;;;;;;9.65;33.79;99843.19;5079549;28;20063;-84
2024/03/09 09:32:34;;;;;;;13.82;9.15;;;;;;;9.75;33.22;99857.63;5088026;28;20109;-85
2024/03/09 09:35:05;;;;;;;12.48;8.32;;;;;;;9.79;33.63;99842.66;5076464;28;20040;-84
2024/03/09 09:37:44;;;;;;;13.18;8.55;;;;;;;9.84;33.21;99839.44;5074586;28;20040;-84
2024/03/09 09:40:21;;;;;;;13.38;9.40;;;;;;;9.91;33.58;99840.53;5074029;28;20052;-83
2024/03/09 09:42:52;;;;;;;13.25;8.13;;;;;;;9.99;33.34;99840.63;5090406;28;20519;-83
2024/03/09 09:45:44;;;;;;;12.25;8.45;;;;;;;10.07;33.65;99837.13;5074009;28;20132;-83
2024/03/09 09:48:32;;;;;;;11.15;7.63;;;;;;;10.13;33.78;99836.50;5075426;28;20048;-83
2024/03/09 09:51:07;;;;;;;13.05;9.05;;;;;;;10.14;33.63;99830.03;5071702;28;20116;-83
2024/03/09 09:53:58;;;;;;;13.65;8.57;;;;;;;10.24;32.78;99839.84;5089096;28;20040;-83
2024/03/09 09:56:42;;;;;;;11.95;8.40;;;;;;;10.34;32.41;99827.97;5086579;28;20045;-83
2024/03/09 09:59:35;;;;;;;12.15;8.13;;;;;;;10.34;33.27;99817.88;5071903;28;20488;-82
2024/03/09 10:02:16;;;;;;;11.43;7.88;;;;;;;10.43;33.54;99822.41;5076751;28;20437;-83
2024/03/09 10:08:20;;;;;;;11.25;7.63;;;;;;;10.57;33.89;99815.53;5089137;28;20043;-82
2024/03/09 10:10:48;;;;;;;10.23;7.25;;;;;;;10.68;33.33;99811.66;5074194;28;20044;-82
2024/03/09 10:13:31;;;;;;;11.85;7.20;;;;;;;10.79;33.16;99808.69;5066748;28;20064;-83
2024/03/09 10:16:04;;;;;;;11.98;7.70;;;;;;;10.88;33.18;99810.44;5056592;28;20123;-83
2024/03/09 10:18:32;;;;;;;12.40;8.15;;;;;;;10.96;33.54;99813.25;5078559;28;20500;-83
2024/03/09 10:21:02;;;;;;;10.23;6.78;;;;;;;11.08;33.21;99808.31;5070399;28;20078;-83
2024/03/09 10:23:35;;;;;;;12.20;8.13;;;;;;;11.18;33.30;99800.84;5078012;28;20045;-84
2024/03/09 10:26:13;;;;;;;11.35;7.82;;;;;;;11.27;33.18;99800.72;5058322;28;20526;-83
2024/03/09 10:28:45;;;;;;;11.13;7.28;;;;;;;11.39;32.69;99795.78;5085059;28;20136;-82
2024/03/09 10:31:18;;;;;;;10.10;7.53;;;;;;;11.45;32.29;99786.94;5080560;28;20127;-83
2024/03/09 10:33:55;;;;;;;12.55;7.63;;;;;;;11.53;32.48;99792.44;5059101;28;20041;-84
2024/03/09 10:36:32;;;;;;;11.32;7.97;;;;;;;11.60;32.53;99784.41;5076827;28;20051;-85
2024/03/09 10:39:06;;;;;;;11.52;7.57;;;;;;;11.64;32.33;99788.53;5060561;28;20396;-83
2024/03/09 10:41:45;;;;;;;12.07;8.35;;;;;;;11.70;32.17;99790.63;5080087;28;20069;-83
2024/03/09 10:44:29;;;;;;;9.82;7.32;;;;;;;11.80;31.81;99782.25;5075110;28;20737;-82
2024/03/09 10:47:07;;;;;;;10.93;7.32;;;;;;;11.82;31.75;99778.31;5075022;28;20048;-82
2024/03/09 10:49:42;;;;;;;9.88;7.05;;;;;;;11.86;31.85;99776.09;5073814;28;20505;-82
2024/03/09 10:52:15;;;;;;;11.80;8.15;;;;;;;11.89;31.11;99773.84;5063370;28;20435;-82
2024/03/09 11:07:05;;;;;;;9.85;6.93;;;;;;;11.98;31.23;99761.00;5084955;28;20113;-83
2024/03/09 11:14:59;;;;;;;9.55;6.57;;;;;;;12.00;31.74;99746.13;4956083;28;20042;-82
2024/03/09 11:32:47;;;;;;;10.00;6.45;;;;;;;12.43;31.16;99747.66;4832140;29;20045;-83
2024/03/09 11:38:56;;;;;;;9.77;6.60;;;;;;;12.43;31.21;99722.97;4962709;28;20050;-82
2024/03/09 11:44:33;;;;;;;11.32;6.45;;;;;;;12.51;31.14;99724.81;5014983;28;20468;-82
2024/03/09 11:47:27;;;;;;;9.18;6.63;;;;;;;12.53;31.07;99720.03;5012615;28;20541;-83
2024/03/09 11:50:25;;;;;;;9.63;6.75;;;;;;;12.56;30.54;99722.41;4920023;28;20115;-83
2024/03/09 12:11:58;;;;;;;8.48;5.78;;;;;;;12.85;31.49;99698.00;5104916;22;20047;-73
2024/03/09 12:14:27;;;;;;;9.20;6.47;;;;;;;12.94;31.16;99692.47;5070963;28;20046;-73
2024/03/09 12:16:58;;;;;;;8.95;5.80;;;;;;;13.00;31.16;99691.75;5082472;28;20035;-74
2024/03/09 12:19:27;;;;;;;9.70;6.25;;;;;;;13.06;31.38;99683.66;5104750;27;20035;-75
2024/03/09 12:21:55;;;;;;;8.85;6.20;;;;;;;13.13;31.24;99681.03;5112570;27;20118;-74
2024/03/09 12:24:23;;;;;;;9.30;6.57;;;;;;;13.20;31.33;99676.56;5075461;28;20109;-74
2024/03/09 12:26:51;;;;;;;9.15;6.55;;;;;;;13.25;31.04;99682.34;5088437;28;20154;-75
2024/03/09 12:29:21;;;;;;;8.80;6.10;;;;;;;13.33;31.00;99670.47;5101337;28;20076;-74
2024/03/09 12:31:50;;;;;;;9.18;6.13;;;;;;;13.36;31.02;99667.38;5100113;28;20039;-74
2024/03/09 12:34:18;;;;;;;8.88;6.20;;;;;;;13.41;30.33;99665.78;5103425;28;20217;-74
2024/03/09 12:36:52;;;;;;;9.55;6.15;;;;;;;13.47;29.90;99659.53;5081664;28;20048;-74
2024/03/09 12:39:21;;;;;;;8.90;6.78;;;;;;;13.47;30.66;99665.03;5104682;28;20637;-74
2024/03/09 12:41:51;;;;;;;9.73;6.90;;;;;;;13.52;30.32;99651.63;5109758;28;20059;-72
2024/03/09 12:44:20;;;;;;;8.73;6.40;;;;;;;13.56;30.41;99655.72;5101449;28;20043;-71
2024/03/09 12:46:49;;;;;;;10.80;7.38;;;;;;;13.57;30.15;99653.84;5088400;28;20052;-74
2024/03/09 12:49:19;;;;;;;10.82;7.10;;;;;;;13.61;30.41;99649.72;5091346;28;20043;-73
2024/03/09 12:51:48;;;;;;;10.05;6.47;;;;;;;13.64;30.28;99654.81;5105329;27;20039;-74
2024/03/09 12:54:18;;;;;;;9.95;7.10;;;;;;;13.67;30.20;99646.22;5093727;28;20239;-72
2024/03/09 12:56:47;;;;;;;8.73;5.85;;;;;;;13.70;29.91;99654.06;5104240;28;20040;-74
2024/03/09 12:59:20;;;;;;;9.70;6.28;;;;;;;13.73;29.65;99644.59;5088524;28;20043;-73
2024/03/09 13:01:50;;;;;;;;;;;;;;;13.46;30.16;99638.59;5113158;27;20563;-72
2024/03/09 13:04:23;;;;;;;9.52;6.05;;;;;;;13.72;29.83;99635.50;5094851;28;20868;-73
2024/03/09 13:06:55;;;;;;;8.93;5.90;;;;;;;13.78;29.91;99629.25;5084925;28;20077;-73
2024/03/09 13:09:30;;;;;;;8.50;6.00;;;;;;;13.81;30.03;99622.53;5094098;28;20524;-75
2024/03/09 13:11:58;;;;;;;7.85;5.55;;;;;;;13.83;29.98;99632.31;5103943;28;20542;-73
2024/03/09 13:14:26;;;;;;;8.70;5.95;;;;;;;13.83;29.57;99621.31;5089617;28;20043;-73
2024/03/09 13:16:55;;;;;;;8.80;5.90;;;;;;;13.86;29.81;99620.13;5088951;28;20101;-73
2024/03/09 13:19:23;;;;;;;9.65;5.75;;;;;;;13.85;29.37;99616.50;5099724;28;20036;-73
2024/03/09 13:21:52;;;;;;;7.80;5.03;;;;;;;13.88;29.46;99607.88;5097627;28;20490;-73
2024/03/09 13:24:21;;;;;;;7.78;5.20;;;;;;;13.91;29.73;99604.75;5105518;28;20567;-72
2024/03/09 13:26:51;;;;;;;9.05;5.90;;;;;;;13.92;29.54;99606.47;5097721;28;20055;-71
2024/03/09 13:29:25;;;;;;;7.90;5.40;;;;;;;13.93;29.63;99605.44;5105840;28;20115;-73
2024/03/09 13:31:54;;;;;;;8.15;5.35;;;;;;;13.97;29.21;99605.88;5083467;28;20039;-72
2024/03/09 13:34:24;;;;;;;7.93;4.88;;;;;;;13.98;29.76;99608.47;5092001;28;20067;-72
2024/03/09 13:36:53;;;;;;;9.18;5.57;;;;;;;14.02;29.14;99608.09;5102938;28;20054;-73
2024/03/09 13:39:27;;;;;;;7.93;5.18;;;;;;;14.03;29.63;99599.63;5097188;28;20042;-71
2024/03/09 13:41:57;;;;;;;8.00;5.18;;;;;;;14.05;29.55;99596.69;5098802;28;20501;-73
2024/03/09 13:44:25;;;;;;;7.80;5.93;;;;;;;14.07;29.64;99589.13;5072736;28;20064;-72
2024/03/09 13:46:54;;;;;;;8.20;4.70;;;;;;;14.12;29.56;99597.66;5078756;28;20043;-74
2024/03/09 13:49:22;;;;;;;6.40;4.40;;;;;;;14.12;29.26;99582.00;5096841;28;20383;-73
2024/03/09 13:51:50;;;;;;;6.78;4.38;;;;;;;14.17;29.16;99589.72;5098743;28;20134;-72
2024/03/09 13:54:18;;;;;;;6.88;4.22;;;;;;;14.19;29.71;99580.19;5102371;28;20089;-73
2024/03/09 13:56:47;;;;;;;6.82;4.82;;;;;;;14.23;29.74;99583.44;5100996;28;20490;-73
2024/03/09 13:59:15;;;;;;;5.97;3.85;;;;;;;14.25;29.35;99570.34;5100888;28;20075;-73
2024/03/09 14:01:44;;;;;;;7.53;5.13;;;;;;;14.27;28.96;99574.59;5096515;28;20123;-72
2024/03/09 14:04:17;;;;;;;6.72;4.97;;;;;;;14.30;28.89;99579.75;5102700;28;20070;-72
2024/03/09 14:06:49;;;;;;;6.72;4.68;;;;;;;14.30;29.20;99577.00;5079753;28;20534;-73
2024/03/09 14:09:44;;;;;;;6.90;4.72;;;;;;;14.30;29.31;99567.88;5072921;28;20507;-73
2024/03/09 14:12:15;;;;;;;7.20;4.60;;;;;;;14.32;29.18;99563.91;5090494;28;20044;-74
2024/03/09 14:14:43;;;;;;;6.53;4.28;;;;;;;14.33;29.14;99557.34;5085128;28;20097;-72
2024/03/09 14:17:12;;;;;;;6.80;4.70;;;;;;;14.34;28.60;99559.06;5104664;28;20514;-73
2024/03/09 14:19:42;;;;;;;6.18;4.35;;;;;;;14.36;28.91;99558.84;5099085;27;20593;-72
2024/03/09 14:22:11;;;;;;;6.70;4.60;;;;;;;14.34;28.42;99552.72;5108654;27;20134;-71